Time;durP1;ratioP1;P1;durP2;ratioP2;P2;SDS_P1;SDS_P2;PMS_P1;PMS_P2;Temp;Humidity;BMP_temperature;BMP_pressure;BME280_temperature;BME280_humidity;BME280_pressure;Samples;Min_cycle;Max_cycle;Signal;HPM_P1;HPM_P2
2021/01/01 00:03:52;;;;;;;43.65;19.63;;;-0.20;99.90;;;;;;8364026;28;20085;-95
2021/01/01 00:07:55;;;;;;;28.95;17.02;;;-0.30;99.90;;;;;;8429219;28;20005;-95
2021/01/01 00:11:56;;;;;;;31.25;15.82;;;-0.30;99.90;;;;;;8429257;28;20004;-95
2021/01/01 00:16:00;;;;;;;23.05;11.65;;;-0.50;99.90;;;;;;8429129;28;20011;-96
2021/01/01 00:20:01;;;;;;;18.52;10.95;;;-0.20;99.90;;;;;;8428659;28;20076;-96
2021/01/01 00:24:02;;;;;;;14.98;8.90;;;-0.30;99.90;;;;;;8428793;28;20005;-95
2021/01/01 00:28:03;;;;;;;22.48;12.23;;;-0.50;99.90;;;;;;8428883;28;19997;-94
2021/01/01 00:32:08;;;;;;;22.88;13.23;;;-0.70;99.90;;;;;;8428236;28;20009;-95
2021/01/01 00:36:09;;;;;;;23.50;13.05;;;-0.50;99.90;;;;;;8417645;28;20012;-95
2021/01/01 00:40:10;;;;;;;22.88;11.85;;;-0.60;99.90;;;;;;8427727;28;20177;-95
2021/01/01 00:44:11;;;;;;;14.77;8.13;;;-0.30;99.90;;;;;;8427404;28;20004;-94
2021/01/01 00:48:12;;;;;;;17.17;8.50;;;-0.50;99.90;;;;;;8427316;28;20028;-94
2021/01/01 00:52:12;;;;;;;19.23;10.70;;;-0.70;99.90;;;;;;8426874;28;20004;-94
2021/01/01 00:56:22;;;;;;;21.88;11.95;;;-0.90;99.90;;;;;;8427096;28;20019;-95
2021/01/01 01:00:23;;;;;;;17.15;9.52;;;-1.10;99.90;;;;;;8425773;28;20021;-94
2021/01/01 01:04:23;;;;;;;11.70;6.20;;;-0.90;99.90;;;;;;8411021;28;20012;-94
2021/01/01 01:08:24;;;;;;;18.95;10.65;;;-1.00;99.90;;;;;;8393687;28;20068;-95
2021/01/01 01:12:29;;;;;;;18.95;9.60;;;-1.00;99.90;;;;;;8393641;28;20008;-95
2021/01/01 01:16:32;;;;;;;24.10;10.55;;;-1.00;99.90;;;;;;8393712;28;20035;-96
2021/01/01 01:20:33;;;;;;;89.15;81.03;;;-1.20;99.90;;;;;;8393541;28;20001;-95
2021/01/01 01:28:36;;;;;;;17.60;9.57;;;-1.20;99.90;;;;;;8361792;28;20082;-68
2021/01/01 01:32:37;;;;;;;20.23;11.27;;;-1.10;99.90;;;;;;8362890;28;20471;-68
2021/01/01 01:36:37;;;;;;;18.05;10.10;;;-1.00;99.90;;;;;;8363501;28;20048;-67
2021/01/01 01:40:38;;;;;;;18.10;10.32;;;-0.80;99.90;;;;;;8362822;28;20040;-67
2021/01/01 01:44:38;;;;;;;18.48;9.18;;;-0.80;99.90;;;;;;8362022;28;20025;-68
2021/01/01 01:48:40;;;;;;;19.08;10.73;;;-0.90;99.90;;;;;;8362922;28;20024;-68
2021/01/01 01:52:41;;;;;;;22.75;11.82;;;-0.70;99.90;;;;;;8361732;28;20021;-67
2021/01/01 01:56:43;;;;;;;20.63;11.52;;;-0.70;99.90;;;;;;8362953;28;20029;-68
2021/01/01 02:04:56;;;;;;;18.65;10.30;;;-0.80;99.90;;;;;;8362307;28;20021;-67
2021/01/01 02:08:57;;;;;;;20.73;11.70;;;-0.90;99.90;;;;;;8362139;28;20033;-67
2021/01/01 02:12:58;;;;;;;16.92;8.45;;;-0.80;99.90;;;;;;8361997;28;20067;-67
2021/01/01 02:16:58;;;;;;;18.05;10.10;;;-0.50;99.90;;;;;;8361907;28;20132;-67
2021/01/01 02:20:59;;;;;;;19.40;11.52;;;-0.40;99.90;;;;;;8361697;28;20033;-67
2021/01/01 02:24:59;;;;;;;18.17;11.00;;;-0.50;99.90;;;;;;8361640;28;20029;-68
2021/01/01 02:29:00;;;;;;;17.42;9.32;;;-0.20;99.90;;;;;;8361450;28;20031;-68
2021/01/01 02:33:00;;;;;;;16.75;10.32;;;0.00;99.90;;;;;;8360014;28;20025;-68
2021/01/01 02:37:01;;;;;;;16.08;8.95;;;-0.10;99.90;;;;;;8361537;28;20107;-67
2021/01/01 02:41:01;;;;;;;20.52;10.68;;;-0.20;99.90;;;;;;8360995;28;20076;-67
2021/01/01 02:45:03;;;;;;;17.48;10.55;;;-0.30;99.90;;;;;;8359831;28;20031;-68
2021/01/01 02:49:03;;;;;;;18.90;11.65;;;-0.20;99.90;;;;;;8361015;28;20032;-67
2021/01/01 02:53:04;;;;;;;19.70;10.13;;;-0.10;99.90;;;;;;8361074;28;20025;-68
2021/01/01 02:57:05;;;;;;;17.67;9.73;;;-0.10;99.90;;;;;;8361097;28;20025;-67
2021/01/01 03:01:05;;;;;;;18.85;9.85;;;0.10;99.90;;;;;;8360454;28;20029;-68
2021/01/01 03:05:06;;;;;;;17.48;9.98;;;0.30;99.90;;;;;;8359307;28;20025;-66
2021/01/01 03:09:07;;;;;;;21.00;11.15;;;0.10;99.90;;;;;;8360357;28;20029;-68
2021/01/01 03:13:07;;;;;;;20.83;11.73;;;0.10;99.90;;;;;;8360498;28;20700;-68
2021/01/01 03:17:08;;;;;;;21.42;11.77;;;0.20;99.90;;;;;;8360369;28;20029;-68
2021/01/01 03:21:08;;;;;;;17.38;10.57;;;0.10;99.90;;;;;;8360163;28;20502;-67
2021/01/01 03:25:09;;;;;;;21.38;11.27;;;0.30;99.90;;;;;;8359574;28;20029;-67
2021/01/01 03:29:10;;;;;;;18.30;9.32;;;0.30;99.90;;;;;;8359916;28;20017;-68
2021/01/01 03:33:10;;;;;;;21.38;11.75;;;0.30;99.90;;;;;;8359803;28;20501;-67
2021/01/01 03:37:11;;;;;;;19.63;10.88;;;0.30;99.90;;;;;;8360263;28;20036;-67
2021/01/01 03:41:11;;;;;;;19.23;11.38;;;0.20;99.90;;;;;;8358394;28;20052;-68
2021/01/01 03:45:13;;;;;;;20.42;11.77;;;0.10;99.90;;;;;;8359637;28;20109;-68
2021/01/01 03:49:13;;;;;;;17.95;11.15;;;0.40;99.90;;;;;;8359733;28;20154;-68
2021/01/01 03:53:14;;;;;;;20.83;10.77;;;0.40;99.90;;;;;;8358501;28;20033;-68
2021/01/01 03:57:14;;;;;;;17.05;10.77;;;0.40;99.90;;;;;;8359666;28;20090;-68
2021/01/01 04:01:16;;;;;;;19.27;11.38;;;0.60;99.90;;;;;;8359565;28;20618;-67
2021/01/01 04:05:16;;;;;;;21.02;11.18;;;0.70;99.90;;;;;;8359427;28;20052;-68
2021/01/01 04:09:17;;;;;;;17.95;10.73;;;0.70;99.90;;;;;;8359384;28;20025;-67
2021/01/01 04:13:18;;;;;;;18.90;10.75;;;0.90;99.90;;;;;;8359277;28;20068;-68
2021/01/01 04:17:18;;;;;;;18.73;10.77;;;1.00;99.90;;;;;;8359335;28;20391;-68
2021/01/01 04:21:19;;;;;;;18.23;11.25;;;1.00;99.90;;;;;;8359184;28;20688;-68
2021/01/01 04:25:19;;;;;;;21.67;11.38;;;0.80;99.90;;;;;;8359100;28;20060;-68
2021/01/01 04:29:20;;;;;;;20.20;10.95;;;0.70;99.90;;;;;;8358877;28;20031;-68
2021/01/01 04:33:20;;;;;;;18.05;10.45;;;0.80;99.90;;;;;;8357436;28;20029;-67
2021/01/01 04:37:21;;;;;;;17.20;10.40;;;0.70;99.90;;;;;;8364599;28;20063;-68
2021/01/01 04:41:22;;;;;;;19.70;11.55;;;0.60;99.90;;;;;;8364957;28;20437;-66
2021/01/01 04:45:23;;;;;;;20.27;11.13;;;0.70;99.90;;;;;;8365061;28;20079;-68
2021/01/01 04:49:23;;;;;;;17.35;10.80;;;1.10;99.90;;;;;;8363602;28;20081;-68
2021/01/01 04:53:24;;;;;;;17.02;10.52;;;1.00;99.90;;;;;;8365016;28;20033;-70
2021/01/01 04:57:25;;;;;;;19.83;11.32;;;0.90;99.90;;;;;;8365295;28;20075;-70
2021/01/01 05:01:26;;;;;;;16.10;10.13;;;1.00;99.90;;;;;;8364761;28;20029;-70
2021/01/01 05:05:27;;;;;;;20.23;10.98;;;1.10;99.90;;;;;;8340437;28;20037;-71
2021/01/01 05:09:28;;;;;;;17.77;10.32;;;1.10;99.90;;;;;;8331238;28;20021;-70
2021/01/01 05:13:29;;;;;;;19.13;10.70;;;1.00;99.90;;;;;;8331463;28;20039;-70
2021/01/01 05:17:34;;;;;;;17.95;10.65;;;0.90;99.90;;;;;;8331331;28;20064;-70
2021/01/01 05:21:34;;;;;;;16.90;10.05;;;1.10;99.90;;;;;;8329821;28;20139;-70
2021/01/01 05:25:35;;;;;;;17.40;10.18;;;1.00;99.90;;;;;;8330900;28;20033;-71
2021/01/01 05:29:43;;;;;;;514.85;468.90;;;0.90;99.90;;;;;;8330762;28;20026;-70
2021/01/01 05:33:59;;;;;;;20.20;11.23;;;1.00;99.90;;;;;;8340142;28;20112;-70
2021/01/01 05:38:15;;;;;;;18.90;11.00;;;0.90;99.90;;;;;;8330860;28;20071;-71
2021/01/01 05:42:22;;;;;;;22.00;10.93;;;1.00;99.90;;;;;;8330200;28;20018;-70
2021/01/01 05:46:22;;;;;;;19.77;10.95;;;1.00;99.90;;;;;;8330076;28;20030;-70
2021/01/01 05:50:23;;;;;;;20.05;10.70;;;1.00;99.90;;;;;;8330259;28;20665;-70
2021/01/01 05:54:23;;;;;;;20.02;11.65;;;0.90;99.90;;;;;;8330156;28;20100;-70
2021/01/01 05:58:25;;;;;;;20.33;12.15;;;0.90;99.90;;;;;;8330040;28;20503;-72
2021/01/01 06:02:30;;;;;;;17.35;10.25;;;1.10;99.90;;;;;;8329617;28;20087;-70
2021/01/01 06:06:34;;;;;;;19.23;10.95;;;1.20;99.90;;;;;;8352273;28;20025;-70
2021/01/01 06:10:43;;;;;;;20.48;11.00;;;1.30;99.90;;;;;;8361880;28;20028;-70
2021/01/01 06:14:45;;;;;;;16.00;9.50;;;1.60;99.90;;;;;;8361006;28;20044;-70
2021/01/01 06:18:50;;;;;;;17.80;10.63;;;1.40;99.90;;;;;;8357524;28;20701;-72
2021/01/01 06:23:00;;;;;;;18.92;9.45;;;1.30;99.90;;;;;;8357992;28;20027;-70
2021/01/01 06:27:01;;;;;;;17.30;10.02;;;1.40;99.90;;;;;;8358224;28;20118;-70
2021/01/01 06:31:04;;;;;;;21.00;11.18;;;1.50;99.90;;;;;;8356482;28;20033;-70
2021/01/01 06:35:17;;;;;;;17.05;9.40;;;1.60;99.90;;;;;;8360883;28;20052;-72
2021/01/01 06:39:41;;;;;;;327.25;297.52;;;1.20;99.90;;;;;;8357493;28;20017;-71
2021/01/01 06:43:50;;;;;;;17.98;10.25;;;1.20;99.90;;;;;;8358560;28;20025;-71
2021/01/01 06:47:50;;;;;;;18.70;10.75;;;1.30;99.90;;;;;;8355093;28;20102;-71
2021/01/01 06:52:08;;;;;;;19.73;11.00;;;1.30;99.90;;;;;;8359096;28;20025;-72
2021/01/01 06:56:10;;;;;;;20.13;10.93;;;1.30;99.90;;;;;;8360767;28;20139;-70
2021/01/01 07:00:11;;;;;;;16.42;10.55;;;1.00;99.90;;;;;;8359946;28;20476;-70
2021/01/01 07:04:12;;;;;;;19.38;9.23;;;0.80;99.90;;;;;;8359872;28;20033;-71
2021/01/01 07:08:41;;;;;;;937.37;858.43;;;0.80;99.90;;;;;;8359256;28;20066;-70
2021/01/01 07:12:42;;;;;;;19.77;10.48;;;1.00;99.90;;;;;;8354461;28;20150;-70
2021/01/01 07:16:46;;;;;;;18.88;10.65;;;1.10;99.90;;;;;;8357651;28;20021;-70
2021/01/01 07:20:47;;;;;;;20.85;11.57;;;0.90;99.90;;;;;;8357407;28;20037;-71
2021/01/01 07:24:47;;;;;;;23.65;11.63;;;0.70;99.90;;;;;;8358832;28;20027;-70
2021/01/01 07:28:48;;;;;;;23.42;12.48;;;0.70;99.90;;;;;;8358239;28;20537;-72
2021/01/01 07:32:50;;;;;;;24.73;12.35;;;0.70;99.90;;;;;;8358105;28;20021;-69
2021/01/01 07:36:53;;;;;;;26.17;11.70;;;0.70;99.90;;;;;;8359728;28;20052;-71
2021/01/01 07:40:54;;;;;;;34.15;18.95;;;0.70;99.90;;;;;;8357837;28;20021;-71
2021/01/01 07:44:55;;;;;;;17.88;10.50;;;1.00;99.90;;;;;;8346347;28;20017;-71
2021/01/01 07:48:56;;;;;;;18.60;10.70;;;1.00;99.90;;;;;;8336002;28;20112;-70
2021/01/01 07:53:10;;;;;;;16.77;10.07;;;1.00;99.90;;;;;;8346247;28;20029;-72
2021/01/01 07:57:10;;;;;;;16.90;10.30;;;1.00;99.90;;;;;;8359622;28;20025;-72
2021/01/01 08:01:12;;;;;;;16.77;10.07;;;1.20;99.90;;;;;;8359343;28;20048;-71
2021/01/01 08:05:14;;;;;;;18.98;10.23;;;1.30;99.90;;;;;;8362278;28;20036;-71
2021/01/01 08:09:16;;;;;;;16.42;9.30;;;1.40;99.90;;;;;;8361993;28;20025;-71
2021/01/01 08:13:23;;;;;;;16.33;10.32;;;1.70;99.90;;;;;;8366161;28;20044;-72
2021/01/01 08:17:29;;;;;;;17.10;10.30;;;1.70;99.90;;;;;;8364301;28;20031;-73
2021/01/01 08:21:39;;;;;;;21.88;11.63;;;2.00;99.90;;;;;;8365826;28;20139;-71
2021/01/01 08:25:40;;;;;;;23.25;13.27;;;2.20;99.90;;;;;;8365507;28;20029;-71
2021/01/01 08:29:41;;;;;;;22.17;12.40;;;2.40;99.90;;;;;;8364230;28;20031;-71
2021/01/01 08:33:43;;;;;;;28.45;15.85;;;2.40;99.90;;;;;;8354720;28;20033;-71
2021/01/01 08:37:43;;;;;;;26.42;14.55;;;2.30;99.90;;;;;;8364409;28;20041;-73
2021/01/01 08:41:46;;;;;;;25.48;14.50;;;2.60;99.90;;;;;;8361693;28;20048;-71
2021/01/01 08:45:47;;;;;;;25.90;14.65;;;2.60;99.90;;;;;;8363535;28;20179;-71
2021/01/01 08:49:48;;;;;;;23.67;13.50;;;2.70;99.90;;;;;;8364938;28;20033;-72
2021/01/01 08:53:49;;;;;;;26.00;13.85;;;2.80;99.90;;;;;;8364665;28;20040;-71
2021/01/01 08:57:49;;;;;;;27.60;14.90;;;2.80;99.90;;;;;;8363784;28;20025;-71
2021/01/01 09:01:51;;;;;;;25.45;15.02;;;2.80;99.90;;;;;;8363458;28;20025;-72
2021/01/01 09:05:53;;;;;;;36.50;21.52;;;2.80;99.90;;;;;;8353697;28;20021;-71
2021/01/01 09:09:54;;;;;;;40.42;23.65;;;2.60;99.90;;;;;;8363826;28;20426;-71
2021/01/01 09:14:05;;;;;;;64.40;33.38;;;2.70;99.90;;;;;;8364561;28;20032;-71
2021/01/01 09:18:06;;;;;;;55.90;32.30;;;2.90;99.90;;;;;;8363377;28;20029;-71
2021/01/01 09:22:19;;;;;;;41.03;24.08;;;2.90;99.90;;;;;;8362837;28;20121;-76
2021/01/01 09:26:22;;;;;;;49.33;30.40;;;3.20;99.90;;;;;;8358398;28;20029;-71
2021/01/01 09:30:28;;;;;;;42.33;27.15;;;3.20;99.90;;;;;;8361337;28;20021;-71
2021/01/01 09:34:29;;;;;;;30.75;19.45;;;3.30;99.90;;;;;;8357179;28;20044;-72
2021/01/01 09:38:30;;;;;;;26.58;16.48;;;3.50;99.90;;;;;;8360292;28;20025;-72
2021/01/01 09:42:30;;;;;;;22.85;15.05;;;3.80;99.90;;;;;;8360622;28;20102;-72
2021/01/01 09:46:31;;;;;;;22.88;14.35;;;3.70;99.90;;;;;;8361362;28;20017;-72
2021/01/01 09:50:32;;;;;;;20.63;11.82;;;3.80;99.90;;;;;;8359864;28;20024;-72
2021/01/01 09:54:32;;;;;;;12.68;7.30;;;4.00;99.90;;;;;;8360043;28;20100;-71
2021/01/01 09:58:33;;;;;;;13.07;6.38;;;4.20;99.90;;;;;;8360645;28;20056;-72
2021/01/01 10:02:33;;;;;;;13.82;7.97;;;4.10;99.90;;;;;;8360611;28;20040;-71
2021/01/01 10:06:34;;;;;;;11.63;6.47;;;4.20;99.90;;;;;;8360799;28;20511;-71
2021/01/01 10:10:34;;;;;;;13.90;7.45;;;4.20;99.90;;;;;;8356079;28;20064;-72
2021/01/01 10:14:35;;;;;;;13.52;7.43;;;4.00;99.90;;;;;;8359356;28;20052;-71
2021/01/01 10:18:37;;;;;;;11.48;7.18;;;4.20;99.90;;;;;;8359692;28;20029;-72
2021/01/01 10:22:38;;;;;;;12.80;7.63;;;4.20;99.90;;;;;;8358931;28;20433;-71
2021/01/01 10:26:38;;;;;;;12.70;7.40;;;4.50;99.90;;;;;;8360364;28;20078;-71
2021/01/01 10:30:42;;;;;;;13.18;7.90;;;4.30;99.90;;;;;;8358579;28;20020;-71
2021/01/01 10:34:43;;;;;;;14.15;9.15;;;4.50;99.90;;;;;;8360232;28;20043;-71
2021/01/01 10:38:44;;;;;;;13.60;7.85;;;4.90;99.90;;;;;;8360150;28;20036;-72
2021/01/01 10:42:44;;;;;;;11.90;6.65;;;4.80;99.90;;;;;;8361149;28;20033;-71
2021/01/01 10:46:54;;;;;;;12.43;7.32;;;4.90;99.90;;;;;;8361302;28;20036;-71
2021/01/01 10:50:55;;;;;;;15.13;8.52;;;4.90;99.90;;;;;;8361186;28;20547;-71
2021/01/01 10:54:56;;;;;;;15.93;7.90;;;4.70;99.90;;;;;;8360938;28;20025;-68
2021/01/01 10:58:56;;;;;;;13.75;7.90;;;4.60;99.90;;;;;;8357832;28;20581;-68
2021/01/01 11:02:57;;;;;;;14.00;7.93;;;4.60;99.90;;;;;;8353753;28;20041;-69
2021/01/01 11:06:57;;;;;;;11.75;7.10;;;4.50;99.90;;;;;;8354470;28;20130;-68
2021/01/01 11:10:58;;;;;;;14.95;7.70;;;4.50;99.90;;;;;;8352728;28;20111;-68
2021/01/01 12:20:47;;;;;;;14.05;7.07;;;4.50;99.90;;;;;;8343691;28;20084;-69
2021/01/01 12:24:48;;;;;;;13.82;7.22;;;4.60;99.90;;;;;;8341210;28;20120;-68
2021/01/01 12:28:49;;;;;;;13.10;7.07;;;4.60;99.90;;;;;;8364429;28;20454;-68
2021/01/01 12:32:51;;;;;;;11.80;7.30;;;4.70;99.90;;;;;;8387059;28;20082;-69
2021/01/01 12:36:51;;;;;;;12.20;7.22;;;4.60;99.90;;;;;;8358494;28;20052;-68
2021/01/01 12:40:52;;;;;;;17.05;9.43;;;4.40;99.90;;;;;;8358120;28;20033;-68
2021/01/01 12:44:52;;;;;;;13.30;8.05;;;4.40;99.90;;;;;;8357296;28;20032;-68
2021/01/01 12:48:53;;;;;;;13.43;7.90;;;4.40;99.90;;;;;;8358282;28;20025;-67
2021/01/01 12:53:00;;;;;;;17.17;8.90;;;4.30;99.90;;;;;;8357093;28;20123;-68
2021/01/01 12:57:00;;;;;;;15.25;9.38;;;4.20;99.90;;;;;;8359649;28;20399;-68
2021/01/01 13:01:01;;;;;;;21.38;12.43;;;4.10;99.90;;;;;;8363847;28;20035;-68
2021/01/01 13:05:01;;;;;;;18.00;9.35;;;4.00;99.90;;;;;;8352768;28;20056;-68
2021/01/01 13:09:02;;;;;;;16.52;9.18;;;3.90;99.90;;;;;;8362302;28;20049;-69
2021/01/01 13:13:03;;;;;;;16.17;9.65;;;3.80;99.90;;;;;;8363653;28;20025;-69
2021/01/01 13:17:03;;;;;;;18.63;9.85;;;3.50;99.90;;;;;;8362087;28;20031;-68
2021/01/01 13:21:06;;;;;;;18.85;9.73;;;3.40;99.90;;;;;;8362124;28;20112;-68
2021/01/01 13:25:08;;;;;;;17.90;9.88;;;3.30;99.90;;;;;;8362768;28;20025;-68
2021/01/01 13:29:08;;;;;;;19.13;9.80;;;3.20;99.90;;;;;;8363103;28;20055;-68
2021/01/01 13:33:09;;;;;;;16.17;9.77;;;3.30;99.90;;;;;;8360250;28;20433;-69
2021/01/01 13:37:09;;;;;;;17.70;9.90;;;3.40;99.90;;;;;;8361113;28;20025;-69
2021/01/01 13:41:10;;;;;;;20.75;10.73;;;3.60;99.90;;;;;;8361993;28;20051;-69
2021/01/01 13:45:12;;;;;;;16.95;9.80;;;3.50;99.90;;;;;;8362768;28;20108;-69
2021/01/01 13:49:12;;;;;;;18.77;10.88;;;3.50;99.90;;;;;;8351424;28;20029;-69
2021/01/01 13:53:13;;;;;;;19.75;10.43;;;3.40;99.90;;;;;;8358290;28;20033;-68
2021/01/01 13:57:13;;;;;;;19.50;10.50;;;3.50;99.90;;;;;;8360371;28;20029;-69
2021/01/01 14:01:19;;;;;;;20.08;10.25;;;3.60;99.90;;;;;;8360606;28;20028;-67
2021/01/01 14:05:19;;;;;;;21.95;11.70;;;3.70;99.90;;;;;;8344997;28;20100;-69
2021/01/01 14:09:20;;;;;;;24.08;11.82;;;3.80;99.90;;;;;;8357980;28;20048;-69
2021/01/01 14:13:20;;;;;;;21.83;12.10;;;3.70;99.90;;;;;;8358650;28;20029;-68
2021/01/01 14:17:21;;;;;;;23.20;12.48;;;3.70;99.90;;;;;;8358229;28;20037;-69
2021/01/01 14:21:29;;;;;;;19.73;11.95;;;3.70;99.90;;;;;;8356341;28;20037;-69
2021/01/01 14:25:30;;;;;;;24.33;13.20;;;3.60;99.90;;;;;;8357699;28;20060;-67
2021/01/01 14:29:30;;;;;;;23.70;12.90;;;3.50;99.90;;;;;;8356069;28;20407;-68
2021/01/01 14:33:31;;;;;;;26.52;14.07;;;3.40;99.90;;;;;;8357760;28;20036;-69
2021/01/01 14:37:31;;;;;;;24.58;13.88;;;3.50;99.90;;;;;;8357679;28;20098;-69
2021/01/01 14:41:33;;;;;;;23.98;13.85;;;3.50;99.90;;;;;;8356452;28;20033;-69
2021/01/01 14:45:33;;;;;;;24.55;14.20;;;3.40;99.90;;;;;;8357039;28;20020;-68
2021/01/01 14:49:34;;;;;;;25.98;15.38;;;3.50;99.90;;;;;;8347022;28;20369;-69
2021/01/01 14:53:34;;;;;;;30.90;16.95;;;3.40;99.90;;;;;;8353291;28;20028;-69
2021/01/01 14:57:42;;;;;;;31.35;17.25;;;3.40;99.90;;;;;;8354261;28;20059;-68
2021/01/01 15:01:42;;;;;;;23.90;14.55;;;3.30;99.90;;;;;;8355520;28;20106;-68
2021/01/01 15:05:43;;;;;;;26.27;13.05;;;3.30;99.90;;;;;;8354526;28;20025;-68
2021/01/01 15:09:43;;;;;;;26.58;15.00;;;3.30;99.90;;;;;;8353321;28;20578;-68
2021/01/01 15:13:44;;;;;;;25.42;13.60;;;3.20;99.90;;;;;;8354539;28;20138;-68
2021/01/01 15:17:44;;;;;;;27.83;15.02;;;3.20;99.90;;;;;;8352207;28;20055;-68
2021/01/01 15:21:45;;;;;;;25.35;14.73;;;3.10;99.90;;;;;;8346836;28;20040;-68
2021/01/01 15:25:45;;;;;;;25.13;13.75;;;3.10;99.90;;;;;;8352592;28;20029;-71
2021/01/01 15:29:46;;;;;;;25.08;14.13;;;3.10;99.90;;;;;;8353873;28;20036;-70
2021/01/01 15:33:47;;;;;;;26.90;13.98;;;3.00;99.90;;;;;;8354983;28;20029;-71
2021/01/01 15:37:47;;;;;;;27.63;14.38;;;3.00;99.90;;;;;;8354133;28;20041;-71
2021/01/01 15:41:48;;;;;;;32.75;15.48;;;2.90;99.90;;;;;;8353297;28;20032;-71
2021/01/01 15:45:49;;;;;;;30.88;16.70;;;2.80;99.90;;;;;;8353247;28;20037;-70
2021/01/01 15:49:52;;;;;;;53.88;27.00;;;2.70;99.90;;;;;;8351324;28;20040;-72
2021/01/01 15:53:53;;;;;;;25.75;13.00;;;2.80;99.90;;;;;;8357264;28;20495;-71
2021/01/01 15:57:53;;;;;;;28.08;17.27;;;2.80;99.90;;;;;;8349727;28;20103;-70
2021/01/01 16:01:54;;;;;;;27.00;16.58;;;2.90;99.90;;;;;;8353567;28;20029;-71
2021/01/01 16:05:55;;;;;;;32.75;19.95;;;2.80;99.90;;;;;;8352662;28;20025;-71
2021/01/01 16:09:55;;;;;;;35.30;24.50;;;2.80;99.90;;;;;;8353515;28;20028;-72
2021/01/01 16:13:56;;;;;;;25.00;14.65;;;2.70;99.90;;;;;;8353915;28;20056;-71
2021/01/01 16:17:56;;;;;;;23.88;12.07;;;2.70;99.90;;;;;;8354711;28;20029;-71
2021/01/01 16:21:57;;;;;;;21.77;11.48;;;2.70;99.90;;;;;;8354301;28;20037;-70
2021/01/01 16:25:57;;;;;;;21.33;11.68;;;2.70;99.90;;;;;;8352730;28;20048;-71
2021/01/01 16:29:59;;;;;;;22.23;11.18;;;2.70;99.90;;;;;;8353024;28;20021;-71
2021/01/01 16:34:01;;;;;;;20.42;11.38;;;2.60;99.90;;;;;;8356164;28;20107;-73
2021/01/01 16:38:02;;;;;;;19.25;10.57;;;2.50;99.90;;;;;;8361937;28;20112;-70
2021/01/01 16:42:03;;;;;;;19.85;10.88;;;2.50;99.90;;;;;;8358783;28;20037;-71
2021/01/01 16:46:03;;;;;;;19.88;10.80;;;2.50;99.90;;;;;;8330142;28;20380;-72
2021/01/01 16:50:06;;;;;;;19.10;9.68;;;2.50;99.90;;;;;;8329023;28;20032;-71
2021/01/01 16:54:08;;;;;;;19.52;10.20;;;2.40;99.90;;;;;;8327602;28;20063;-70
2021/01/01 16:58:09;;;;;;;18.80;9.82;;;2.50;99.90;;;;;;8352850;28;20055;-72
2021/01/01 17:02:09;;;;;;;17.05;9.65;;;2.50;99.90;;;;;;8361694;28;20116;-71
2021/01/01 17:06:21;;;;;;;17.00;9.55;;;2.40;99.90;;;;;;8360513;28;20118;-73
2021/01/01 17:10:21;;;;;;;17.85;9.50;;;2.30;99.90;;;;;;8348536;28;20029;-71
2021/01/01 17:14:22;;;;;;;20.42;9.20;;;2.40;99.90;;;;;;8344275;28;21223;-71
2021/01/01 17:18:23;;;;;;;17.90;9.38;;;2.40;99.90;;;;;;8358064;28;20028;-71
2021/01/01 17:22:23;;;;;;;18.90;9.13;;;2.40;99.90;;;;;;8356024;28;20056;-70
2021/01/01 17:26:27;;;;;;;16.05;9.60;;;2.40;99.90;;;;;;8367356;28;20032;-72
2021/01/01 17:30:27;;;;;;;16.52;9.13;;;2.30;99.90;;;;;;8357093;28;20407;-70
2021/01/01 17:34:28;;;;;;;17.33;8.63;;;2.30;99.90;;;;;;8355486;28;20044;-72
2021/01/01 17:38:29;;;;;;;14.55;8.10;;;2.30;99.90;;;;;;8357499;28;20509;-71
2021/01/01 17:42:30;;;;;;;14.60;8.07;;;2.20;99.90;;;;;;8357421;28;20087;-72
2021/01/01 17:46:30;;;;;;;17.67;8.35;;;2.30;99.90;;;;;;8357654;28;20025;-73
2021/01/01 17:50:32;;;;;;;14.63;8.43;;;2.30;99.90;;;;;;8356007;28;20040;-70
2021/01/01 17:54:33;;;;;;;15.00;8.05;;;2.20;99.90;;;;;;8355930;28;20025;-72
2021/01/01 17:58:34;;;;;;;18.42;9.45;;;2.10;99.90;;;;;;8355973;28;20025;-71
2021/01/01 18:02:35;;;;;;;18.55;9.73;;;2.10;99.90;;;;;;8353598;28;20112;-70
2021/01/01 18:06:35;;;;;;;18.63;9.65;;;2.10;99.90;;;;;;8355684;28;20561;-71
2021/01/01 18:10:36;;;;;;;18.15;10.18;;;2.00;99.90;;;;;;8354247;28;20032;-72
2021/01/01 18:14:36;;;;;;;18.23;8.85;;;2.10;99.90;;;;;;8351192;28;20025;-70
2021/01/01 18:18:38;;;;;;;17.13;9.82;;;2.10;99.90;;;;;;8352076;28;20174;-71
2021/01/01 18:22:41;;;;;;;16.60;9.00;;;2.10;99.90;;;;;;8354845;28;20086;-71
2021/01/01 18:26:46;;;;;;;16.48;8.85;;;2.00;99.90;;;;;;8351048;28;20878;-72
2021/01/01 18:30:47;;;;;;;15.55;9.10;;;2.10;99.90;;;;;;8354040;28;20864;-71
2021/01/01 18:34:53;;;;;;;19.23;9.80;;;2.20;99.90;;;;;;8351813;28;20032;-71
2021/01/01 18:39:01;;;;;;;17.33;9.23;;;2.10;99.90;;;;;;8344081;28;20030;-71
2021/01/01 18:43:07;;;;;;;19.80;10.23;;;2.20;99.90;;;;;;8353533;28;20499;-71
2021/01/01 18:47:15;;;;;;;16.85;9.40;;;2.10;99.90;;;;;;8343151;28;20055;-72
2021/01/01 18:51:16;;;;;;;18.23;9.70;;;2.20;99.90;;;;;;8337781;28;20040;-72
2021/01/01 18:55:18;;;;;;;23.40;11.88;;;2.10;99.90;;;;;;8347773;28;20091;-71
2021/01/01 18:59:37;;;;;;;17.52;9.10;;;2.20;99.90;;;;;;8351238;28;20029;-70
2021/01/01 19:04:28;;;;;;;18.50;9.02;;;2.10;99.90;;;;;;8353824;28;20475;-72
2021/01/01 19:08:36;;;;;;;19.77;9.37;;;2.10;99.90;;;;;;8334984;28;20063;-70
2021/01/01 19:12:36;;;;;;;16.63;8.65;;;2.20;99.90;;;;;;8352540;28;20395;-71
2021/01/01 19:16:38;;;;;;;17.83;9.65;;;2.10;99.90;;;;;;8351533;28;20064;-70
2021/01/01 19:20:50;;;;;;;17.45;9.38;;;2.10;99.90;;;;;;8353261;28;20036;-70
2021/01/01 19:24:58;;;;;;;14.88;8.32;;;2.20;99.90;;;;;;8351370;28;20373;-71
2021/01/01 19:29:04;;;;;;;15.90;8.80;;;2.20;99.90;;;;;;8351509;28;20075;-70
2021/01/01 19:33:24;;;;;;;18.23;9.00;;;2.20;99.90;;;;;;8352465;28;20036;-70
2021/01/01 19:37:24;;;;;;;19.48;10.15;;;2.20;99.90;;;;;;8341672;28;20018;-71
2021/01/01 19:41:25;;;;;;;17.23;10.13;;;2.10;99.90;;;;;;8348557;28;20454;-72
2021/01/01 19:46:06;;;;;;;17.52;9.82;;;2.10;99.90;;;;;;8352269;28;20056;-71
2021/01/01 19:50:16;;;;;;;19.48;10.25;;;2.00;99.90;;;;;;8342520;28;20024;-71
2021/01/01 19:54:46;;;;;;;19.42;10.25;;;2.10;99.90;;;;;;8352837;28;20033;-70
2021/01/01 19:59:02;;;;;;;19.42;10.85;;;2.00;99.90;;;;;;8351734;28;20040;-71
2021/01/01 20:03:07;;;;;;;17.40;9.40;;;2.00;99.90;;;;;;8352179;28;20132;-71
2021/01/01 20:07:20;;;;;;;16.17;8.65;;;2.10;99.90;;;;;;8355187;28;20040;-70
2021/01/01 20:11:24;;;;;;;15.88;8.82;;;2.10;99.90;;;;;;8359881;28;20576;-70
2021/01/01 20:15:27;;;;;;;12.70;7.97;;;2.00;99.90;;;;;;8358897;28;20029;-71
2021/01/01 20:19:32;;;;;;;13.38;8.13;;;2.00;99.90;;;;;;8358569;28;20110;-72
2021/01/01 20:23:33;;;;;;;14.52;7.78;;;1.90;99.90;;;;;;8358795;28;20025;-71
2021/01/01 20:27:40;;;;;;;12.70;7.22;;;1.90;99.90;;;;;;8359112;28;20108;-71
2021/01/01 20:31:41;;;;;;;12.75;7.75;;;1.90;99.90;;;;;;8348855;28;20017;-70
2021/01/01 20:35:45;;;;;;;13.73;8.00;;;1.80;99.90;;;;;;8352565;28;20033;-70
2021/01/01 20:40:11;;;;;;;13.93;7.80;;;1.90;99.90;;;;;;8352911;28;20441;-71
2021/01/01 20:44:55;;;;;;;642.07;594.63;;;1.70;99.90;;;;;;8355420;28;20037;-70
2021/01/01 20:58:05;;;;;;;543.23;501.30;;;1.70;99.90;;;;;;8360059;28;20028;-72
2021/01/01 21:02:10;;;;;;;569.10;530.43;;;1.70;99.90;;;;;;8358761;28;20036;-71
2021/01/01 21:06:16;;;;;;;524.17;486.27;;;1.90;99.90;;;;;;8354965;28;20029;-72
2021/01/01 21:10:22;;;;;;;628.33;580.13;;;1.80;99.90;;;;;;8353249;28;20075;-71
2021/01/01 21:14:45;;;;;;;592.53;552.27;;;1.80;99.90;;;;;;8352841;28;20018;-71
2021/01/01 21:19:32;;;;;;;598.30;556.53;;;1.80;99.90;;;;;;8355961;28;20032;-73
2021/01/01 21:23:45;;;;;;;609.57;566.10;;;1.90;99.90;;;;;;8357379;28;20029;-72
2021/01/01 21:28:29;;;;;;;421.27;392.67;;;1.80;99.90;;;;;;8359274;28;20029;-71
2021/01/01 21:32:49;;;;;;;507.63;475.87;;;1.90;99.90;;;;;;8335650;28;20068;-72
2021/01/01 21:37:12;;;;;;;494.60;465.05;;;1.90;99.90;;;;;;8358356;28;20469;-72
2021/01/01 21:41:24;;;;;;;460.60;431.10;;;1.90;99.90;;;;;;8357460;28;20040;-71
2021/01/01 21:45:43;;;;;;;443.13;416.63;;;1.80;99.90;;;;;;8356828;28;20091;-71
2021/01/01 21:49:48;;;;;;;449.80;422.50;;;1.90;99.90;;;;;;8359192;28;20028;-70
2021/01/01 21:53:48;;;;;;;489.20;457.33;;;1.90;99.90;;;;;;8357769;28;20041;-71
2021/01/01 21:57:49;;;;;;;374.23;351.27;;;1.90;99.90;;;;;;8357815;28;20029;-71
2021/01/01 22:01:52;;;;;;;393.17;369.57;;;2.00;99.90;;;;;;8357937;28;20028;-70
2021/01/01 22:05:53;;;;;;;413.07;388.07;;;2.00;99.90;;;;;;8355604;28;20017;-72
2021/01/01 22:09:54;;;;;;;304.33;283.93;;;2.00;99.90;;;;;;8358663;28;20407;-71
2021/01/01 22:13:55;;;;;;;462.80;435.07;;;2.00;99.90;;;;;;8354674;28;20021;-70
2021/01/01 22:17:56;;;;;;;399.00;374.70;;;1.90;99.90;;;;;;8346834;28;20029;-71